Time;durP1;ratioP1;P1;durP2;ratioP2;P2;SDS_P1;SDS_P2;PMS_P1;PMS_P2;Temp;Humidity;BMP_temperature;BMP_pressure;BME280_temperature;BME280_humidity;BME280_pressure;Samples;Min_cycle;Max_cycle;Signal;HPM_P1;HPM_P2
2022/03/21 00:02:03;;;;;;;14.70;8.60;;;4.40;40.40;;;;;;5011155;28;20030;-70
2022/03/21 00:04:28;;;;;;;13.45;8.50;;;4.30;40.50;;;;;;5011006;28;20029;-70
2022/03/21 00:06:54;;;;;;;13.20;8.60;;;4.30;40.60;;;;;;5011126;28;20022;-69
2022/03/21 00:09:19;;;;;;;16.30;9.63;;;4.30;40.60;;;;;;5014261;28;20055;-69
2022/03/21 00:11:45;;;;;;;13.85;8.73;;;4.30;40.80;;;;;;5014785;28;20105;-70
2022/03/21 00:14:11;;;;;;;16.88;9.68;;;4.30;41.00;;;;;;5015205;28;20030;-70
2022/03/21 00:16:37;;;;;;;17.15;10.35;;;4.20;41.00;;;;;;4997484;28;20036;-70
2022/03/21 00:19:04;;;;;;;14.13;9.15;;;4.10;41.60;;;;;;5014917;28;20485;-70
2022/03/21 00:21:29;;;;;;;20.48;11.40;;;4.00;42.70;;;;;;5014790;28;20508;-70
2022/03/21 00:23:55;;;;;;;17.73;10.98;;;3.90;43.70;;;;;;5014575;28;20029;-70
2022/03/21 00:26:21;;;;;;;16.55;10.20;;;3.80;43.90;;;;;;5014818;28;20029;-70
2022/03/21 00:28:46;;;;;;;20.05;10.88;;;3.50;44.10;;;;;;5014567;28;20026;-70
2022/03/21 00:31:13;;;;;;;21.80;10.32;;;3.40;45.20;;;;;;5014611;28;20009;-70
2022/03/21 00:33:39;;;;;;;16.88;10.43;;;3.20;45.00;;;;;;5010931;23;20051;-76
2022/03/21 00:36:07;;;;;;;15.00;8.82;;;3.00;45.20;;;;;;4953294;29;20103;-76
2022/03/21 00:38:34;;;;;;;13.48;8.02;;;2.90;45.40;;;;;;4956721;29;20507;-76
2022/03/21 00:41:00;;;;;;;19.27;10.50;;;2.80;44.20;;;;;;4963715;29;20026;-76
2022/03/21 00:43:26;;;;;;;20.17;10.32;;;2.70;45.50;;;;;;4970998;28;20022;-78
2022/03/21 00:45:55;;;;;;;20.13;11.10;;;2.60;46.50;;;;;;4983172;28;20069;-76
2022/03/21 00:48:22;;;;;;;18.27;9.70;;;2.50;46.80;;;;;;4980116;28;20023;-75
2022/03/21 00:50:48;;;;;;;16.40;9.90;;;2.50;47.20;;;;;;4958133;28;20030;-75
2022/03/21 00:53:16;;;;;;;18.65;9.40;;;2.40;48.50;;;;;;4959266;28;20046;-77
2022/03/21 00:55:42;;;;;;;15.25;9.50;;;2.30;48.70;;;;;;4975122;28;20046;-77
2022/03/21 00:58:08;;;;;;;19.85;10.15;;;2.20;50.00;;;;;;4957643;28;20098;-77
2022/03/21 01:00:33;;;;;;;20.83;10.43;;;2.00;50.60;;;;;;4953701;29;20491;-76
2022/03/21 01:03:01;;;;;;;20.55;10.63;;;2.00;50.20;;;;;;4974415;28;20490;-76
2022/03/21 01:05:27;;;;;;;25.48;11.23;;;2.00;51.30;;;;;;4975684;28;20035;-76
2022/03/21 01:07:53;;;;;;;19.88;10.75;;;1.90;52.30;;;;;;4975275;28;20114;-77
2022/03/21 01:10:21;;;;;;;19.42;10.80;;;1.90;49.80;;;;;;4958415;28;20019;-76
2022/03/21 01:12:48;;;;;;;16.05;9.10;;;1.90;49.80;;;;;;4975542;28;20100;-77
2022/03/21 01:15:15;;;;;;;16.17;8.77;;;2.10;48.50;;;;;;4976257;28;20045;-74
2022/03/21 01:17:42;;;;;;;16.45;9.30;;;2.10;47.20;;;;;;4955371;28;20053;-76
2022/03/21 01:20:09;;;;;;;15.07;8.50;;;2.20;46.70;;;;;;4956948;28;20486;-78
2022/03/21 01:22:34;;;;;;;18.52;10.00;;;2.30;46.40;;;;;;4975006;28;20486;-77
2022/03/21 01:25:00;;;;;;;17.48;10.50;;;2.40;46.60;;;;;;4976632;28;20027;-77
2022/03/21 01:27:26;;;;;;;17.52;8.82;;;2.20;47.50;;;;;;4958508;28;20117;-77
2022/03/21 01:29:51;;;;;;;15.85;9.27;;;2.20;48.90;;;;;;4975284;28;20018;-77
2022/03/21 01:32:17;;;;;;;17.83;10.40;;;2.00;49.70;;;;;;4974780;28;20402;-75
2022/03/21 01:34:43;;;;;;;13.95;8.93;;;1.80;50.80;;;;;;4974635;28;20035;-77
2022/03/21 01:37:09;;;;;;;16.55;9.82;;;1.70;50.50;;;;;;4950691;28;20026;-75
2022/03/21 01:39:34;;;;;;;21.15;11.93;;;1.60;51.70;;;;;;4974829;28;20402;-77
2022/03/21 01:42:00;;;;;;;17.48;9.55;;;1.50;53.10;;;;;;4974675;28;20034;-76
2022/03/21 01:44:25;;;;;;;18.38;9.80;;;1.30;54.10;;;;;;4974751;28;20030;-77
2022/03/21 01:46:51;;;;;;;18.33;10.02;;;1.30;53.70;;;;;;4974465;28;20045;-77
2022/03/21 01:49:17;;;;;;;15.57;8.25;;;1.30;53.20;;;;;;4974715;28;20018;-78
2022/03/21 01:51:43;;;;;;;17.30;8.45;;;1.40;50.20;;;;;;4957245;28;20411;-77
2022/03/21 01:56:54;;;;;;;16.38;8.35;;;1.80;48.40;;;;;;4974569;28;20414;-76
2022/03/21 01:59:21;;;;;;;14.15;8.18;;;2.00;47.80;;;;;;4974518;28;20026;-77
2022/03/21 02:01:47;;;;;;;17.83;9.68;;;2.10;47.30;;;;;;4956927;28;20026;-76
2022/03/21 02:04:13;;;;;;;21.02;11.68;;;2.00;47.90;;;;;;4974275;28;20509;-77
2022/03/21 02:06:41;;;;;;;25.40;11.07;;;2.10;48.10;;;;;;4957259;28;20031;-77
2022/03/21 02:09:07;;;;;;;19.85;8.93;;;2.00;48.70;;;;;;4973786;28;20402;-77
2022/03/21 02:11:33;;;;;;;20.75;10.10;;;2.00;49.50;;;;;;4973981;28;20031;-77
2022/03/21 02:14:00;;;;;;;19.55;10.38;;;2.00;51.10;;;;;;4973956;28;20096;-77
2022/03/21 02:16:30;;;;;;;14.45;8.75;;;1.90;51.60;;;;;;4973982;28;20041;-76
2022/03/21 02:18:59;;;;;;;17.73;8.32;;;1.80;49.50;;;;;;4973426;28;20023;-77
2022/03/21 02:21:30;;;;;;;14.73;8.52;;;1.80;49.90;;;;;;4974015;28;20034;-75
2022/03/21 02:24:16;;;;;;;;;;;1.70;49.60;;;;;;4974444;28;20081;-76
2022/03/21 02:26:45;;;;;;;13.73;7.07;;;1.70;48.40;;;;;;4934078;29;19910;-77
2022/03/21 02:29:11;;;;;;;11.68;6.93;;;1.60;48.60;;;;;;4973131;28;20050;-78
2022/03/21 02:31:36;;;;;;;12.63;7.70;;;1.60;48.40;;;;;;4973936;28;20027;-77
2022/03/21 02:34:02;;;;;;;15.60;7.55;;;1.50;48.40;;;;;;4970030;28;20116;-77
2022/03/21 02:36:28;;;;;;;14.25;8.00;;;1.40;49.40;;;;;;4996245;28;20117;-76
2022/03/21 02:38:56;;;;;;;12.57;8.52;;;1.40;50.00;;;;;;4990799;28;20037;-79
2022/03/21 02:41:22;;;;;;;14.10;8.73;;;1.30;50.60;;;;;;5014645;28;20045;-78
2022/03/21 02:43:56;;;;;;;13.77;7.93;;;1.20;51.30;;;;;;5014832;28;20053;-78
2022/03/21 02:46:22;;;;;;;20.83;10.95;;;1.00;51.70;;;;;;5014134;28;20049;-79
2022/03/21 02:48:49;;;;;;;18.02;9.65;;;1.00;52.40;;;;;;5012302;28;20029;-76
2022/03/21 02:51:17;;;;;;;19.48;9.68;;;0.90;53.60;;;;;;4979093;28;20018;-76
2022/03/21 02:53:45;;;;;;;13.70;8.13;;;0.80;55.00;;;;;;5013941;28;20040;-78
2022/03/21 02:56:10;;;;;;;14.60;8.70;;;0.60;55.60;;;;;;5003372;28;20057;-77
2022/03/21 02:58:36;;;;;;;20.00;9.43;;;0.50;55.60;;;;;;5004777;28;20023;-77
2022/03/21 03:01:09;;;;;;;15.57;9.02;;;0.40;55.90;;;;;;4993479;28;20030;-79
2022/03/21 03:03:35;;;;;;;12.82;7.30;;;0.30;54.90;;;;;;5006949;28;20034;-77
2022/03/21 03:06:02;;;;;;;12.75;7.15;;;0.30;54.50;;;;;;5003965;28;20029;-79
2022/03/21 03:08:28;;;;;;;15.20;7.68;;;0.40;52.80;;;;;;5001351;28;20027;-78
2022/03/21 03:10:54;;;;;;;19.00;9.32;;;0.50;52.60;;;;;;4997387;28;20427;-78
2022/03/21 03:13:20;;;;;;;18.90;9.38;;;0.50;54.10;;;;;;4996007;28;20026;-77
2022/03/21 03:15:47;;;;;;;16.25;9.55;;;0.50;55.30;;;;;;4996765;28;20038;-78
2022/03/21 03:18:13;;;;;;;15.80;9.07;;;0.40;55.90;;;;;;4996641;28;20037;-77
2022/03/21 03:20:47;;;;;;;14.60;7.88;;;0.30;56.20;;;;;;4978374;28;20494;-78
2022/03/21 03:23:13;;;;;;;15.38;8.88;;;0.20;56.20;;;;;;4994963;28;20018;-77
2022/03/21 03:25:39;;;;;;;14.23;7.75;;;0.10;57.00;;;;;;4995895;28;20023;-77
2022/03/21 03:28:04;;;;;;;17.10;9.05;;;0.10;54.70;;;;;;4974173;28;20023;-77
2022/03/21 03:30:30;;;;;;;14.52;8.88;;;0.20;54.20;;;;;;4990019;28;20022;-77
2022/03/21 03:32:55;;;;;;;19.80;9.43;;;0.30;54.40;;;;;;4995896;28;20073;-77
2022/03/21 03:35:21;;;;;;;17.35;9.63;;;0.30;55.90;;;;;;4995330;28;20033;-76
2022/03/21 03:37:47;;;;;;;21.48;10.23;;;0.30;55.00;;;;;;4980069;28;20029;-77
2022/03/21 03:40:13;;;;;;;20.50;11.38;;;0.30;55.70;;;;;;4997407;28;20053;-77
2022/03/21 03:42:39;;;;;;;15.70;9.48;;;0.30;56.10;;;;;;4999064;28;20027;-75
2022/03/21 03:45:05;;;;;;;15.52;8.90;;;0.30;56.30;;;;;;4969799;28;20034;-77
2022/03/21 03:47:31;;;;;;;18.08;8.60;;;0.50;54.20;;;;;;4973222;28;20109;-76
2022/03/21 03:49:58;;;;;;;11.35;7.30;;;0.60;52.00;;;;;;4996701;28;20066;-76
2022/03/21 03:52:24;;;;;;;14.77;8.02;;;0.70;51.40;;;;;;4978641;28;20041;-76
2022/03/21 03:54:49;;;;;;;14.20;7.32;;;0.70;51.70;;;;;;4995685;28;20031;-76
2022/03/21 03:57:15;;;;;;;14.35;8.02;;;0.60;51.60;;;;;;4995481;28;20033;-76
2022/03/21 03:59:40;;;;;;;14.35;8.50;;;0.60;52.70;;;;;;4996225;28;20490;-77
2022/03/21 04:02:08;;;;;;;16.98;8.45;;;0.60;52.40;;;;;;4995722;28;20030;-76
2022/03/21 04:04:33;;;;;;;17.42;9.20;;;0.60;52.70;;;;;;4981748;28;20105;-75
2022/03/21 04:06:59;;;;;;;14.40;6.90;;;0.70;53.00;;;;;;4993498;28;20118;-76
2022/03/21 04:09:24;;;;;;;15.88;8.95;;;0.70;53.10;;;;;;4995865;28;20500;-76
2022/03/21 04:11:50;;;;;;;13.55;7.97;;;0.70;54.10;;;;;;4978401;28;20014;-76
2022/03/21 04:14:15;;;;;;;13.05;7.80;;;0.60;52.70;;;;;;4995711;28;20478;-76
2022/03/21 04:16:44;;;;;;;15.18;8.13;;;0.50;52.70;;;;;;4995718;28;20030;-77
2022/03/21 04:19:09;;;;;;;15.32;7.82;;;0.50;52.10;;;;;;4977888;28;20022;-77
2022/03/21 04:21:35;;;;;;;13.82;7.65;;;0.60;51.80;;;;;;4995443;28;20030;-76
2022/03/21 04:24:00;;;;;;;15.35;7.30;;;0.60;51.80;;;;;;4995275;28;20030;-76
2022/03/21 04:26:26;;;;;;;17.63;7.57;;;0.60;51.60;;;;;;4995462;28;20027;-76
2022/03/21 04:28:52;;;;;;;16.55;8.60;;;0.60;51.90;;;;;;4977482;28;20030;-76
2022/03/21 04:31:18;;;;;;;14.45;7.68;;;0.50;54.20;;;;;;4995269;28;20482;-76
2022/03/21 04:33:44;;;;;;;13.10;7.70;;;0.30;54.80;;;;;;4995227;28;20034;-76
2022/03/21 04:36:10;;;;;;;16.35;7.85;;;0.10;55.00;;;;;;4995273;28;20450;-77
2022/03/21 04:38:35;;;;;;;15.50;8.07;;;0.00;56.00;;;;;;4995628;28;20622;-76
2022/03/21 04:41:01;;;;;;;17.67;8.35;;;-3276.70;57.30;;;;;;4997212;28;20030;-77
2022/03/21 04:43:26;;;;;;;19.77;8.35;;;-3276.60;57.50;;;;;;4996533;28;20398;-77
2022/03/21 04:45:52;;;;;;;16.42;8.50;;;-3276.50;57.60;;;;;;4996502;28;20076;-77
2022/03/21 04:48:17;;;;;;;13.98;7.68;;;-3276.50;57.20;;;;;;4978830;28;20493;-77
2022/03/21 04:50:43;;;;;;;14.18;7.85;;;-3276.50;57.40;;;;;;4995097;28;20030;-77
2022/03/21 04:53:10;;;;;;;13.90;7.85;;;-3276.50;58.30;;;;;;4994319;28;20023;-76
2022/03/21 04:55:37;;;;;;;14.65;7.65;;;-3276.40;57.80;;;;;;4994928;28;20030;-77
2022/03/21 04:58:02;;;;;;;16.02;8.35;;;-3276.50;57.60;;;;;;4994644;28;20028;-74
2022/03/21 05:00:28;;;;;;;17.70;8.40;;;-3276.50;58.20;;;;;;4977275;28;20117;-76
2022/03/21 05:02:55;;;;;;;17.20;7.55;;;-3276.50;59.20;;;;;;4994460;28;20022;-76
2022/03/21 05:05:20;;;;;;;13.48;6.85;;;-3276.40;58.80;;;;;;4995165;28;20041;-76
2022/03/21 05:07:46;;;;;;;16.30;7.72;;;-3276.70;55.20;;;;;;4977034;28;20022;-77
2022/03/21 05:10:14;;;;;;;14.18;7.00;;;0.00;55.70;;;;;;4994969;28;20026;-76
2022/03/21 05:12:40;;;;;;;15.00;7.43;;;0.00;55.00;;;;;;4995003;28;20092;-76
2022/03/21 05:15:09;;;;;;;14.77;7.15;;;0.00;56.60;;;;;;4995555;28;20397;-75
2022/03/21 05:17:35;;;;;;;14.70;7.28;;;0.00;54.60;;;;;;4998148;28;20062;-76
2022/03/21 05:20:02;;;;;;;12.88;6.35;;;0.10;55.60;;;;;;5000455;28;20371;-76
2022/03/21 05:22:28;;;;;;;15.35;8.00;;;0.10;53.80;;;;;;4977285;28;20030;-77
2022/03/21 05:35:54;;;;;;;13.45;7.07;;;2.00;50.80;;;;;;4975292;28;20076;-76
2022/03/21 05:38:25;;;;;;;13.88;7.47;;;2.50;47.50;;;;;;4974170;28;20394;-77
2022/03/21 05:40:51;;;;;;;12.20;6.65;;;2.80;45.40;;;;;;4973552;28;20027;-75
2022/03/21 05:43:17;;;;;;;14.05;6.50;;;3.30;44.70;;;;;;4973369;28;20019;-76
2022/03/21 05:45:43;;;;;;;12.15;7.13;;;3.80;43.20;;;;;;4956105;28;20019;-77
2022/03/21 05:50:53;;;;;;;11.18;6.80;;;4.80;46.00;;;;;;4974257;28;20082;-76
2022/03/21 05:53:18;;;;;;;13.23;6.68;;;5.50;40.20;;;;;;4974444;28;20027;-76
2022/03/21 05:55:45;;;;;;;11.63;6.95;;;5.60;39.30;;;;;;4975226;28;20070;-76
2022/03/21 05:58:11;;;;;;;11.88;6.82;;;5.90;38.30;;;;;;4975546;28;20050;-76
2022/03/21 06:00:37;;;;;;;11.35;6.88;;;6.10;37.00;;;;;;4957930;28;20023;-76
2022/03/21 06:03:04;;;;;;;12.88;7.03;;;6.00;36.90;;;;;;4975333;28;20556;-75
2022/03/21 06:05:30;;;;;;;13.77;7.65;;;6.20;37.10;;;;;;4965438;28;20418;-75
2022/03/21 06:07:55;;;;;;;12.98;7.13;;;6.90;36.80;;;;;;4967070;28;20078;-76
2022/03/21 06:10:21;;;;;;;12.70;6.70;;;7.90;35.20;;;;;;4971981;28;20027;-77
2022/03/21 06:12:48;;;;;;;15.20;7.97;;;8.80;34.00;;;;;;4952453;28;20039;-77
2022/03/21 06:15:14;;;;;;;11.40;6.90;;;9.50;32.60;;;;;;4956302;29;20027;-74
2022/03/21 06:17:41;;;;;;;12.85;7.82;;;10.30;32.60;;;;;;4944655;28;20031;-76
2022/03/21 06:20:16;;;;;;;15.10;7.78;;;10.70;31.00;;;;;;4974540;28;20102;-77
2022/03/21 06:22:42;;;;;;;12.77;8.38;;;11.40;29.10;;;;;;4974580;28;20030;-77
2022/03/21 06:25:09;;;;;;;13.00;7.20;;;11.80;29.40;;;;;;4973822;28;20023;-74
2022/03/21 06:27:38;;;;;;;13.07;8.20;;;12.50;28.10;;;;;;4975184;28;20046;-75
2022/03/21 06:30:06;;;;;;;10.75;7.32;;;12.50;28.10;;;;;;4974587;28;20486;-77
2022/03/21 06:32:32;;;;;;;11.50;8.07;;;12.80;26.10;;;;;;4975302;28;20042;-77
2022/03/21 06:34:58;;;;;;;9.65;6.82;;;12.80;25.40;;;;;;5003586;23;20046;-70
2022/03/21 06:37:23;;;;;;;12.73;7.55;;;12.20;26.40;;;;;;5025127;28;20044;-70
2022/03/21 06:39:49;;;;;;;12.07;7.07;;;12.40;26.50;;;;;;5019940;28;20029;-71
2022/03/21 06:42:14;;;;;;;16.77;7.97;;;12.00;25.80;;;;;;5019391;28;20413;-71
2022/03/21 06:44:43;;;;;;;12.23;7.45;;;12.40;26.00;;;;;;5009065;28;20025;-71
2022/03/21 06:47:10;;;;;;;13.02;7.40;;;13.00;25.90;;;;;;5013971;28;20068;-71
2022/03/21 06:49:36;;;;;;;12.73;8.50;;;13.10;24.60;;;;;;5024585;28;20034;-69
2022/03/21 06:52:02;;;;;;;13.55;8.30;;;12.40;24.90;;;;;;5021229;28;20021;-71
2022/03/21 06:54:32;;;;;;;13.07;7.32;;;12.30;25.60;;;;;;5017470;28;20049;-69
2022/03/21 06:56:57;;;;;;;10.90;7.75;;;11.60;26.40;;;;;;5003692;28;20022;-72
2022/03/21 06:59:23;;;;;;;11.95;7.97;;;11.20;27.00;;;;;;5030619;28;20032;-73
2022/03/21 07:01:49;;;;;;;15.90;7.13;;;11.40;26.80;;;;;;5005624;28;20064;-71
2022/03/21 07:04:15;;;;;;;14.48;7.75;;;11.00;27.00;;;;;;5022504;28;20053;-71
2022/03/21 07:06:40;;;;;;;12.75;7.47;;;10.70;26.90;;;;;;4998190;28;20485;-72
2022/03/21 07:09:06;;;;;;;10.60;7.53;;;11.00;27.10;;;;;;5026964;28;20548;-72
2022/03/21 07:11:34;;;;;;;15.98;9.55;;;11.10;26.90;;;;;;5016981;28;20392;-72
2022/03/21 07:14:00;;;;;;;15.07;7.85;;;11.30;27.30;;;;;;5021874;28;20030;-73
2022/03/21 07:16:26;;;;;;;19.42;12.68;;;11.00;27.60;;;;;;5023972;28;20120;-73
2022/03/21 07:18:52;;;;;;;17.15;8.75;;;11.60;27.20;;;;;;5014424;28;20029;-71
2022/03/21 07:21:17;;;;;;;16.88;9.23;;;12.20;26.30;;;;;;4981566;28;20443;-73
2022/03/21 07:23:43;;;;;;;13.10;8.98;;;12.40;25.80;;;;;;5025397;28;20088;-73
2022/03/21 07:26:10;;;;;;;14.05;8.23;;;12.60;25.80;;;;;;5023111;28;20028;-72
2022/03/21 07:28:36;;;;;;;13.95;8.38;;;12.70;25.60;;;;;;5016561;28;20034;-72
2022/03/21 07:31:02;;;;;;;11.63;7.53;;;13.50;24.80;;;;;;5010026;28;20068;-73
2022/03/21 07:33:27;;;;;;;25.63;11.65;;;13.70;24.50;;;;;;4998841;28;20505;-72
2022/03/21 07:35:53;;;;;;;15.88;8.07;;;13.90;23.90;;;;;;5023832;28;20045;-73
2022/03/21 07:38:22;;;;;;;13.75;8.75;;;14.40;23.90;;;;;;5022904;28;20028;-74
2022/03/21 07:40:48;;;;;;;10.25;7.68;;;14.20;23.40;;;;;;4998262;28;20029;-71
2022/03/21 07:43:14;;;;;;;15.10;7.75;;;13.50;24.40;;;;;;5028342;28;20026;-75
2022/03/21 07:48:26;;;;;;;14.52;8.68;;;12.90;24.30;;;;;;5019223;28;20400;-73
2022/03/21 07:50:52;;;;;;;27.98;16.80;;;13.20;24.60;;;;;;5029457;28;20071;-76
2022/03/21 07:53:18;;;;;;;11.73;7.53;;;14.20;24.50;;;;;;4997286;28;20021;-71
2022/03/21 07:55:44;;;;;;;47.20;29.45;;;14.10;22.40;;;;;;5023608;28;20030;-70
2022/03/21 07:58:09;;;;;;;21.88;13.55;;;14.20;25.30;;;;;;5020847;28;20029;-71
2022/03/21 08:00:35;;;;;;;33.05;17.98;;;14.20;22.60;;;;;;5017314;28;20092;-70
2022/03/21 08:03:01;;;;;;;11.00;5.70;;;13.50;24.90;;;;;;5027318;28;20116;-72
2022/03/21 08:05:30;;;;;;;11.63;7.32;;;13.70;22.70;;;;;;5016990;28;20018;-71
2022/03/21 08:07:56;;;;;;;9.80;5.78;;;14.40;23.00;;;;;;5005000;28;20050;-70
2022/03/21 08:10:24;;;;;;;10.80;7.32;;;14.20;22.10;;;;;;5024076;28;20445;-75
2022/03/21 08:12:52;;;;;;;11.13;6.10;;;13.90;21.80;;;;;;5015281;28;20022;-73
2022/03/21 08:15:18;;;;;;;12.30;8.50;;;13.70;21.90;;;;;;4997725;28;20108;-71
2022/03/21 08:17:59;;;;;;;8.05;5.40;;;14.00;22.80;;;;;;5022570;28;20054;-73
2022/03/21 08:20:33;;;;;;;18.10;11.05;;;14.00;21.30;;;;;;5023252;28;20100;-73
2022/03/21 08:23:08;;;;;;;12.57;8.45;;;13.40;23.60;;;;;;5014085;28;20030;-74
2022/03/21 08:25:35;;;;;;;11.52;7.78;;;13.80;23.00;;;;;;5015956;28;20022;-76
2022/03/21 08:28:01;;;;;;;11.32;7.47;;;13.80;22.50;;;;;;5020212;28;20026;-75
2022/03/21 08:30:29;;;;;;;24.55;15.40;;;13.80;21.80;;;;;;5026919;28;20040;-74
2022/03/21 08:32:55;;;;;;;25.77;16.95;;;14.50;24.40;;;;;;5017454;28;20025;-74
2022/03/21 08:35:21;;;;;;;18.10;11.15;;;14.50;24.10;;;;;;5029476;28;20084;-74
2022/03/21 08:37:47;;;;;;;19.10;12.45;;;14.20;22.70;;;;;;5021629;28;20030;-76
2022/03/21 08:40:13;;;;;;;13.77;8.55;;;13.50;23.50;;;;;;5005330;28;20037;-74
2022/03/21 08:42:39;;;;;;;9.40;6.38;;;13.70;22.50;;;;;;5028630;28;20117;-77
2022/03/21 08:45:06;;;;;;;13.02;8.30;;;13.40;23.00;;;;;;5001039;28;20026;-76
2022/03/21 08:47:32;;;;;;;18.73;9.50;;;13.50;23.30;;;;;;5016500;28;20120;-70
2022/03/21 08:49:58;;;;;;;11.52;7.28;;;13.50;22.90;;;;;;5014674;28;20032;-68
2022/03/21 08:52:23;;;;;;;14.88;9.65;;;13.50;22.30;;;;;;5032189;28;20030;-68
2022/03/21 08:54:49;;;;;;;9.27;6.05;;;13.10;23.60;;;;;;5031692;28;20091;-69
2022/03/21 08:57:14;;;;;;;22.67;12.93;;;12.70;23.10;;;;;;5032348;28;20045;-70
2022/03/21 08:59:40;;;;;;;20.50;12.48;;;12.80;25.50;;;;;;5032675;28;20032;-69
2022/03/21 09:02:06;;;;;;;16.73;10.90;;;12.90;25.10;;;;;;5033755;28;20022;-70
2022/03/21 09:04:31;;;;;;;15.18;8.68;;;12.90;24.50;;;;;;5033432;28;20029;-69
2022/03/21 09:06:57;;;;;;;18.67;10.75;;;12.70;23.70;;;;;;5033491;28;20032;-69
2022/03/21 09:09:22;;;;;;;10.77;6.40;;;12.30;24.50;;;;;;5033013;28;20456;-71
2022/03/21 09:11:48;;;;;;;12.18;8.27;;;12.50;23.50;;;;;;5033581;28;20108;-71
2022/03/21 09:14:14;;;;;;;12.60;6.50;;;12.30;23.80;;;;;;5035255;28;20361;-70
2022/03/21 09:16:42;;;;;;;12.85;7.55;;;12.10;24.10;;;;;;5040020;28;20049;-70
2022/03/21 09:19:09;;;;;;;21.08;13.35;;;12.30;24.10;;;;;;5039239;28;20049;-70
2022/03/21 09:21:35;;;;;;;21.15;11.07;;;12.60;25.90;;;;;;5039940;28;20021;-70
2022/03/21 09:24:01;;;;;;;11.50;6.38;;;12.80;25.10;;;;;;5015464;28;20087;-71
2022/03/21 09:26:27;;;;;;;8.50;6.38;;;13.10;22.80;;;;;;5033588;28;20025;-71
2022/03/21 09:28:59;;;;;;;12.85;7.25;;;12.40;23.10;;;;;;5032845;28;20519;-71
2022/03/21 09:31:26;;;;;;;9.25;6.57;;;12.60;23.60;;;;;;5033791;28;20559;-71
2022/03/21 09:33:51;;;;;;;9.88;5.68;;;12.40;23.00;;;;;;5033421;28;20060;-70
2022/03/21 09:36:17;;;;;;;13.38;8.30;;;12.50;22.80;;;;;;5034386;28;20081;-70
2022/03/21 09:38:43;;;;;;;12.20;7.53;;;12.40;23.90;;;;;;5038463;28;20059;-70
2022/03/21 09:41:12;;;;;;;18.45;11.70;;;12.60;23.90;;;;;;5039479;28;20041;-70
2022/03/21 09:43:39;;;;;;;15.02;10.30;;;12.70;25.00;;;;;;5039934;28;20583;-70
2022/03/21 09:46:07;;;;;;;24.05;13.00;;;12.80;24.70;;;;;;5009790;28;20034;-71
2022/03/21 09:48:34;;;;;;;11.68;7.22;;;12.90;25.30;;;;;;4994850;28;20025;-70
2022/03/21 09:51:01;;;;;;;16.48;10.50;;;;;;;;;;4993771;28;20026;-71
2022/03/21 09:53:28;;;;;;;13.02;8.00;;;;;;;;;;4993579;28;20076;-71
2022/03/21 09:55:55;;;;;;;10.77;6.63;;;;;;;;;;4993262;28;20069;-70
2022/03/21 09:58:21;;;;;;;16.50;10.10;;;;;;;;;;4992346;28;20018;-70
2022/03/21 10:00:48;;;;;;;17.13;10.77;;;12.30;29.00;;;;;;4993185;28;20118;-71
2022/03/21 10:03:15;;;;;;;17.73;10.10;;;12.40;26.00;;;;;;4992996;28;20085;-71
2022/03/21 10:05:46;;;;;;;19.70;11.90;;;12.80;24.90;;;;;;4993298;28;20022;-71
2022/03/21 10:08:24;;;;;;;15.20;9.48;;;13.00;25.90;;;;;;4992219;28;20023;-69
2022/03/21 10:10:59;;;;;;;20.92;12.95;;;12.60;24.00;;;;;;4975848;28;20117;-70
2022/03/21 10:13:34;;;;;;;10.80;6.40;;;12.00;26.50;;;;;;4992936;28;20101;-70
2022/03/21 10:16:17;;;;;;;10.13;7.00;;;11.70;24.00;;;;;;4993521;28;20481;-70
2022/03/21 10:18:56;;;;;;;13.77;8.88;;;11.50;24.00;;;;;;4975022;28;20563;-69
2022/03/21 10:21:24;;;;;;;20.92;12.27;;;11.50;27.70;;;;;;4993251;28;20109;-70
2022/03/21 10:24:02;;;;;;;14.90;9.55;;;11.80;28.70;;;;;;4993386;28;20034;-70
2022/03/21 10:26:33;;;;;;;9.63;6.75;;;11.70;26.70;;;;;;4993616;28;20019;-70
2022/03/21 10:29:01;;;;;;;18.40;10.40;;;11.50;24.80;;;;;;4992708;28;20022;-68
2022/03/21 10:31:43;;;;;;;18.23;7.95;;;11.40;28.00;;;;;;4993356;28;20061;-70
2022/03/21 10:34:17;;;;;;;22.13;11.98;;;11.40;26.30;;;;;;4975893;28;20034;-70
2022/03/21 10:37:06;;;;;;;20.45;12.70;;;11.40;28.10;;;;;;4993426;28;20691;-70
2022/03/21 10:39:34;;;;;;;20.85;12.45;;;11.40;28.60;;;;;;4992737;28;20034;-69
2022/03/21 10:42:02;;;;;;;12.30;7.00;;;11.40;28.80;;;;;;4992526;28;20033;-69
2022/03/21 10:44:29;;;;;;;12.77;7.25;;;11.50;26.30;;;;;;4992068;28;20086;-71
2022/03/21 10:46:56;;;;;;;11.90;6.82;;;11.30;25.70;;;;;;4975225;28;20113;-70
2022/03/21 10:49:30;;;;;;;12.93;7.82;;;11.30;26.10;;;;;;4991932;28;20030;-71
2022/03/21 10:51:56;;;;;;;10.40;6.30;;;11.20;25.30;;;;;;4974463;28;20113;-70
2022/03/21 10:54:51;;;;;;;12.30;6.72;;;11.00;25.30;;;;;;4974802;28;20125;-71
2022/03/21 10:57:32;;;;;;;13.35;7.53;;;11.00;25.90;;;;;;4991775;28;21013;-70
2022/03/21 11:00:17;;;;;;;;;;;11.20;26.00;;;;;;4992576;28;20037;-70
2022/03/21 11:02:52;;;;;;;12.88;8.45;;;11.10;28.30;;;;;;4992504;28;19961;-70
2022/03/21 11:05:19;;;;;;;17.02;10.63;;;11.10;26.70;;;;;;4975003;28;20022;-70
2022/03/21 11:07:49;;;;;;;9.93;6.68;;;11.10;27.40;;;;;;4991477;28;20026;-71
2022/03/21 11:10:15;;;;;;;11.52;6.70;;;11.10;25.00;;;;;;4992693;28;20033;-71
2022/03/21 11:12:42;;;;;;;13.18;6.72;;;11.00;25.70;;;;;;4992363;28;20026;-69
2022/03/21 11:15:09;;;;;;;16.33;9.27;;;11.10;26.10;;;;;;4992585;28;20027;-70
2022/03/21 11:17:36;;;;;;;19.00;11.57;;;11.20;27.00;;;;;;4991848;28;20084;-70
2022/03/21 11:20:06;;;;;;;11.32;6.57;;;11.20;27.90;;;;;;4992260;28;20034;-69
2022/03/21 11:22:36;;;;;;;9.25;5.95;;;11.30;25.40;;;;;;4992110;28;20030;-69
2022/03/21 11:25:12;;;;;;;18.38;10.38;;;10.90;25.10;;;;;;4992141;28;20018;-69
2022/03/21 11:27:50;;;;;;;13.63;9.35;;;10.80;26.20;;;;;;4991250;28;20030;-70
2022/03/21 11:30:44;;;;;;;15.70;8.10;;;10.90;29.10;;;;;;4991660;28;20053;-70
2022/03/21 11:33:40;;;;;;;12.70;7.97;;;11.00;26.30;;;;;;4922137;28;20047;-67
2022/03/21 11:36:09;;;;;;;11.02;6.32;;;11.00;25.30;;;;;;4991695;28;20034;-68
2022/03/21 11:38:45;;;;;;;9.90;6.18;;;11.10;25.70;;;;;;4991045;28;20034;-70
2022/03/21 11:41:22;;;;;;;14.32;8.95;;;11.00;24.60;;;;;;4974219;28;20513;-69
2022/03/21 11:44:17;;;;;;;9.70;6.78;;;11.00;26.40;;;;;;4991666;28;20453;-69
2022/03/21 11:46:47;;;;;;;10.43;6.20;;;10.90;25.50;;;;;;4991571;28;20028;-70
2022/03/21 11:49:19;;;;;;;18.90;8.30;;;11.00;26.00;;;;;;4991503;28;20065;-70
2022/03/21 11:51:53;;;;;;;15.05;9.75;;;11.10;26.10;;;;;;4974121;28;20101;-69
2022/03/21 11:54:32;;;;;;;10.40;6.47;;;11.30;28.10;;;;;;4991760;28;20429;-70
2022/03/21 11:57:23;;;;;;;15.27;7.88;;;11.30;25.80;;;;;;4992895;28;20026;-68
2022/03/21 11:59:52;;;;;;;11.57;6.85;;;11.40;25.50;;;;;;4991695;28;20066;-70
2022/03/21 12:02:17;;;;;;;14.32;7.47;;;11.30;25.50;;;;;;4991941;28;20549;-70
2022/03/21 12:04:56;;;;;;;10.68;7.50;;;11.40;27.40;;;;;;4995483;28;20042;-69
2022/03/21 12:07:22;;;;;;;14.95;9.25;;;11.40;25.70;;;;;;4977454;28;20029;-70
2022/03/21 12:09:52;;;;;;;15.05;8.85;;;11.60;26.10;;;;;;4978829;28;20018;-71
2022/03/21 12:12:53;;;;;;;11.13;7.30;;;11.60;27.00;;;;;;4996342;28;20026;-72
2022/03/21 12:15:33;;;;;;;11.10;8.20;;;11.70;26.20;;;;;;4996178;28;20030;-70
2022/03/21 12:17:58;;;;;;;15.25;9.93;;;11.70;25.70;;;;;;4977809;28;20637;-70
2022/03/21 12:20:52;;;;;;;13.13;7.85;;;11.80;26.20;;;;;;4995431;28;20073;-70
2022/03/21 12:23:22;;;;;;;10.95;7.80;;;11.80;25.00;;;;;;4977599;28;20039;-70
2022/03/21 12:25:50;;;;;;;10.00;7.13;;;11.80;25.80;;;;;;4995033;28;20524;-70
2022/03/21 12:29:31;;;;;;;16.58;10.07;;;11.90;25.10;;;;;;4994179;28;20512;-70
2022/03/21 12:31:31;;;;;;;12.38;8.15;;;11.80;25.50;;;;;;4994637;28;20445;-70
2022/03/21 12:34:34;;;;;;;24.08;13.00;;;11.90;24.70;;;;;;5013683;23;20052;-72
2022/03/21 12:37:08;;;;;;;14.95;7.95;;;12.00;25.60;;;;;;5034904;28;20029;-75
2022/03/21 12:39:35;;;;;;;14.45;9.43;;;11.90;24.10;;;;;;5035112;28;20412;-75
2022/03/21 12:42:01;;;;;;;14.93;9.07;;;12.00;24.40;;;;;;5034458;28;20022;-75
2022/03/21 12:44:27;;;;;;;13.57;7.65;;;12.00;26.30;;;;;;5034793;28;20532;-73
2022/03/21 12:47:02;;;;;;;9.48;7.13;;;12.10;25.10;;;;;;5035434;28;20026;-76
2022/03/21 12:49:49;;;;;;;9.80;7.40;;;12.20;25.00;;;;;;5034884;28;20068;-76
2022/03/21 12:52:32;;;;;;;15.10;9.70;;;12.20;24.50;;;;;;5034703;28;20455;-77
2022/03/21 12:54:58;;;;;;;15.27;9.57;;;12.20;27.60;;;;;;5035387;28;20493;-75
2022/03/21 12:57:27;;;;;;;14.35;9.48;;;12.30;26.90;;;;;;5037214;28;20026;-75
2022/03/21 12:59:53;;;;;;;16.20;10.10;;;12.30;25.50;;;;;;5047420;28;20060;-75
2022/03/21 13:02:25;;;;;;;12.05;8.23;;;12.30;28.10;;;;;;5035276;28;20023;-77
2022/03/21 13:10:34;;;;;;;14.20;8.27;;;12.40;26.80;;;;;;5015257;28;20115;-74
2022/03/21 13:13:01;;;;;;;12.82;7.88;;;12.40;25.30;;;;;;5034828;28;20022;-79